Time;durP1;ratioP1;P1;durP2;ratioP2;P2;SDS_P1;SDS_P2;PMS_P1;PMS_P2;Temp;Humidity;BMP_temperature;BMP_pressure;BME280_temperature;BME280_humidity;BME280_pressure;Samples;Min_cycle;Max_cycle;Signal;HPM_P1;HPM_P2
2023/05/14 00:00:21;;;;;;;;;;;11.80;67.10;;;;;;5011430;28;19921;-77
2023/05/14 00:02:46;;;;;;;;;;;11.70;67.20;;;;;;5030461;28;19956;-77
2023/05/14 00:05:12;;;;;;;;;;;11.70;67.20;;;;;;5026738;28;19932;-77
2023/05/14 00:07:37;;;;;;;;;;;11.60;68.00;;;;;;5044778;28;19921;-77
2023/05/14 00:10:03;;;;;;;;;;;11.60;67.20;;;;;;5012789;28;20387;-76
2023/05/14 00:12:29;;;;;;;;;;;11.60;67.20;;;;;;5026134;28;19929;-77
2023/05/14 00:14:54;;;;;;;;;;;11.50;67.20;;;;;;5030912;28;19964;-77
2023/05/14 00:17:19;;;;;;;;;;;11.50;67.30;;;;;;5036684;28;19921;-77
2023/05/14 00:19:45;;;;;;;;;;;11.50;67.30;;;;;;5047744;28;19920;-77
2023/05/14 00:22:10;;;;;;;;;;;11.50;67.40;;;;;;5011794;28;20393;-77
2023/05/14 00:24:36;;;;;;;;;;;11.40;67.40;;;;;;5032439;28;19956;-77
2023/05/14 00:27:02;;;;;;;;;;;11.40;67.40;;;;;;5013339;28;19994;-77
2023/05/14 00:29:27;;;;;;;;;;;11.40;67.50;;;;;;5047688;28;19932;-77
2023/05/14 00:31:53;;;;;;;;;;;11.30;67.50;;;;;;5049395;28;20421;-77
2023/05/14 00:34:18;;;;;;;;;;;11.30;67.50;;;;;;5017470;28;19924;-77
2023/05/14 00:36:43;;;;;;;;;;;11.30;67.50;;;;;;5050762;28;19928;-77
2023/05/14 00:39:09;;;;;;;;;;;11.20;67.50;;;;;;5012741;28;19928;-77
2023/05/14 00:41:34;;;;;;;;;;;11.20;67.60;;;;;;5016105;28;19924;-77
2023/05/14 00:44:00;;;;;;;;;;;11.20;67.60;;;;;;5001577;28;20366;-77
2023/05/14 00:46:26;;;;;;;;;;;11.10;67.60;;;;;;4999957;28;20599;-77
2023/05/14 00:48:51;;;;;;;;;;;11.10;67.70;;;;;;5015851;28;19921;-77
2023/05/14 00:51:17;;;;;;;;;;;11.10;67.70;;;;;;5032707;28;19920;-77
2023/05/14 00:53:43;;;;;;;;;;;11.00;67.70;;;;;;5033633;28;19917;-77
2023/05/14 00:56:08;;;;;;;;;;;11.00;67.80;;;;;;4998910;28;19971;-78
2023/05/14 00:58:34;;;;;;;;;;;11.00;67.70;;;;;;5034510;28;19948;-77
2023/05/14 01:00:59;;;;;;;;;;;11.00;67.80;;;;;;5031477;28;19928;-77
2023/05/14 01:03:25;;;;;;;;;;;10.90;67.80;;;;;;5048886;28;20406;-77
2023/05/14 01:05:50;;;;;;;;;;;10.90;67.80;;;;;;5012895;28;19921;-76
2023/05/14 01:08:25;;;;;;;;;;;10.90;67.90;;;;;;5033070;28;19921;-77
2023/05/14 01:10:51;;;;;;;;;;;10.80;67.90;;;;;;5045782;28;20831;-76
2023/05/14 01:13:19;;;;;;;;;;;10.80;67.90;;;;;;5048185;28;20023;-77
2023/05/14 01:15:45;;;;;;;;;;;10.80;67.90;;;;;;4998511;28;19927;-77
2023/05/14 01:18:12;;;;;;;;;;;10.80;68.00;;;;;;5027901;28;19925;-77
2023/05/14 01:20:37;;;;;;;;;;;10.70;67.90;;;;;;5015102;28;19928;-77
2023/05/14 01:23:03;;;;;;;;;;;10.70;68.00;;;;;;5038439;28;19921;-77
2023/05/14 01:25:29;;;;;;;;;;;10.70;68.10;;;;;;4999358;28;20643;-77
2023/05/14 01:27:58;;;;;;;;;;;10.60;68.10;;;;;;5022491;28;20051;-76
2023/05/14 01:30:34;;;;;;;;;;;10.60;68.10;;;;;;5021798;28;19924;-76
2023/05/14 01:33:02;;;;;;;;;;;10.60;68.20;;;;;;5002604;28;19931;-77
2023/05/14 01:35:27;;;;;;;;;;;10.60;68.20;;;;;;5016883;28;19925;-77
2023/05/14 01:37:56;;;;;;;;;;;10.60;68.20;;;;;;4999527;28;19928;-77
2023/05/14 01:40:22;;;;;;;;;;;10.50;68.10;;;;;;5004887;28;19975;-77
2023/05/14 01:42:48;;;;;;;;;;;10.50;68.10;;;;;;5005157;28;19921;-77
2023/05/14 01:45:13;;;;;;;;;;;10.40;68.10;;;;;;5018718;28;19921;-77
2023/05/14 01:47:39;;;;;;;;;;;10.40;68.20;;;;;;5022190;28;19928;-77
2023/05/14 01:50:04;;;;;;;;;;;10.40;68.30;;;;;;5015665;28;19925;-77
2023/05/14 01:52:30;;;;;;;;;;;10.40;68.30;;;;;;5038013;28;19924;-77
2023/05/14 01:54:57;;;;;;;;;;;10.40;68.30;;;;;;5013375;28;19979;-76
2023/05/14 01:57:22;;;;;;;;;;;10.30;68.30;;;;;;5032998;28;19928;-76
2023/05/14 01:59:48;;;;;;;;;;;10.30;68.40;;;;;;5026196;28;19925;-77
2023/05/14 02:02:13;;;;;;;;;;;10.30;68.40;;;;;;5028560;28;20047;-77
2023/05/14 02:04:39;;;;;;;;;;;10.30;68.40;;;;;;5014782;28;19932;-76
2023/05/14 02:07:04;;;;;;;;;;;10.30;68.40;;;;;;5039480;28;19947;-77
2023/05/14 02:09:30;;;;;;;;;;;10.20;68.40;;;;;;5045966;28;19927;-77
2023/05/14 02:11:55;;;;;;;;;;;10.20;68.40;;;;;;4998486;28;20613;-77
2023/05/14 02:14:21;;;;;;;;;;;10.20;68.50;;;;;;5003866;28;19928;-77
2023/05/14 02:16:46;;;;;;;;;;;10.20;68.50;;;;;;5009509;28;19925;-78
2023/05/14 02:19:11;;;;;;;;;;;10.20;68.50;;;;;;4995380;28;19921;-77
2023/05/14 02:21:37;;;;;;;;;;;10.20;68.50;;;;;;4997421;28;20046;-77
2023/05/14 02:24:02;;;;;;;;;;;10.10;68.50;;;;;;5012267;28;19943;-77
2023/05/14 02:26:28;;;;;;;;;;;10.10;68.60;;;;;;5049383;28;19920;-77
2023/05/14 02:28:53;;;;;;;;;;;10.10;68.60;;;;;;5032190;28;21076;-77
2023/05/14 02:31:19;;;;;;;;;;;10.00;68.50;;;;;;5000285;28;19921;-77
2023/05/14 02:33:44;;;;;;;;;;;10.00;68.60;;;;;;5034539;28;19983;-77
2023/05/14 02:36:10;;;;;;;;;;;9.90;68.50;;;;;;4999742;28;19925;-77
2023/05/14 02:38:35;;;;;;;;;;;9.90;68.60;;;;;;5030671;28;19920;-77
2023/05/14 02:41:01;;;;;;;;;;;9.90;68.70;;;;;;5048770;28;20465;-78
2023/05/14 02:43:26;;;;;;;;;;;9.90;68.70;;;;;;5030173;28;19932;-77
2023/05/14 02:45:52;;;;;;;;;;;9.90;68.80;;;;;;5018953;28;20765;-78
2023/05/14 02:48:17;;;;;;;;;;;9.80;68.70;;;;;;5030172;28;19921;-77
2023/05/14 02:50:43;;;;;;;;;;;9.80;68.70;;;;;;5048059;28;20004;-77
2023/05/14 02:53:08;;;;;;;;;;;9.80;68.80;;;;;;5012256;28;19929;-78
2023/05/14 02:55:34;;;;;;;;;;;9.80;68.80;;;;;;4996953;28;20453;-76
2023/05/14 02:57:59;;;;;;;;;;;9.80;68.80;;;;;;5031018;28;19928;-77
2023/05/14 03:00:25;;;;;;;;;;;9.70;68.80;;;;;;5030199;28;19940;-77
2023/05/14 03:02:50;;;;;;;;;;;9.70;68.80;;;;;;5031512;28;20066;-77
2023/05/14 03:05:16;;;;;;;;;;;9.70;69.00;;;;;;4998466;28;19920;-77
2023/05/14 03:07:41;;;;;;;;;;;9.70;69.60;;;;;;5031473;28;19931;-77
2023/05/14 03:10:07;;;;;;;;;;;9.70;68.80;;;;;;5011124;28;19965;-77
2023/05/14 03:12:32;;;;;;;;;;;9.70;69.80;;;;;;5030465;28;19930;-77
2023/05/14 03:14:58;;;;;;;;;;;9.70;68.90;;;;;;5028368;28;19927;-77
2023/05/14 03:17:23;;;;;;;;;;;9.70;69.00;;;;;;5031437;28;20445;-77
2023/05/14 03:19:49;;;;;;;;;;;9.70;68.90;;;;;;5024402;28;19980;-77
2023/05/14 03:22:14;;;;;;;;;;;9.70;68.90;;;;;;5020857;28;19925;-77
2023/05/14 03:24:40;;;;;;;;;;;9.70;68.90;;;;;;5004222;28;19917;-77
2023/05/14 03:27:05;;;;;;;;;;;9.80;68.90;;;;;;5026230;28;19925;-76
2023/05/14 03:29:30;;;;;;;;;;;9.70;68.90;;;;;;4994069;28;20508;-77
2023/05/14 03:31:58;;;;;;;;;;;9.70;68.90;;;;;;5017062;28;20137;-77
2023/05/14 03:34:23;;;;;;;;;;;9.80;68.90;;;;;;5033817;28;19921;-77
2023/05/14 03:36:49;;;;;;;;;;;9.70;68.90;;;;;;5000532;28;19964;-78
2023/05/14 03:39:18;;;;;;;;;;;9.80;69.00;;;;;;5053486;28;19943;-77
2023/05/14 03:41:44;;;;;;;;;;;9.80;69.70;;;;;;5012103;28;19920;-77
2023/05/14 03:44:09;;;;;;;;;;;9.90;69.00;;;;;;5046814;28;19956;-76
2023/05/14 03:46:35;;;;;;;;;;;9.90;68.90;;;;;;5013669;28;19921;-78
2023/05/14 03:49:00;;;;;;;;;;;9.80;69.70;;;;;;5031268;28;19925;-76
2023/05/14 03:51:26;;;;;;;;;;;9.90;68.90;;;;;;4994908;28;21143;-77
2023/05/14 03:53:51;;;;;;;;;;;9.90;68.90;;;;;;5013185;28;19931;-77
2023/05/14 03:56:17;;;;;;;;;;;9.90;68.90;;;;;;5011270;28;19928;-76
2023/05/14 03:58:42;;;;;;;;;;;9.90;68.80;;;;;;5038241;28;19924;-77
2023/05/14 04:01:07;;;;;;;;;;;9.90;68.80;;;;;;5032265;28;22075;-77
2023/05/14 04:03:33;;;;;;;;;;;10.00;68.90;;;;;;5021724;28;19929;-77
2023/05/14 04:05:59;;;;;;;;;;;10.00;68.90;;;;;;5012622;28;19929;-76
2023/05/14 04:08:24;;;;;;;;;;;10.00;68.90;;;;;;5011604;28;19921;-77
2023/05/14 04:10:50;;;;;;;;;;;10.00;68.80;;;;;;5028440;28;19921;-76
2023/05/14 04:13:15;;;;;;;;;;;10.00;68.80;;;;;;5028955;28;19939;-77
2023/05/14 04:15:41;;;;;;;;;;;10.10;68.90;;;;;;4997767;28;19928;-77
2023/05/14 04:18:06;;;;;;;;;;;10.10;68.90;;;;;;5030910;28;19925;-76
2023/05/14 04:20:32;;;;;;;;;;;10.10;68.80;;;;;;5032555;28;19928;-77
2023/05/14 04:22:57;;;;;;;;;;;10.20;68.80;;;;;;5030068;28;19936;-77
2023/05/14 04:25:23;;;;;;;;;;;10.20;68.80;;;;;;4999150;28;19974;-77
2023/05/14 04:27:48;;;;;;;;;;;10.20;68.80;;;;;;5031173;28;20796;-77
2023/05/14 04:30:14;;;;;;;;;;;10.20;68.80;;;;;;5022139;28;19925;-77
2023/05/14 04:32:39;;;;;;;;;;;10.30;68.80;;;;;;5031040;28;20276;-76
2023/05/14 04:35:05;;;;;;;;;;;10.30;68.80;;;;;;5015980;28;19932;-76
2023/05/14 04:37:31;;;;;;;;;;;10.30;68.80;;;;;;5029207;28;20100;-77
2023/05/14 04:39:57;;;;;;;;;;;10.30;68.70;;;;;;4985766;28;19921;-77
2023/05/14 04:42:22;;;;;;;;;;;10.30;68.70;;;;;;5013734;28;19920;-76
2023/05/14 04:44:48;;;;;;;;;;;10.40;68.70;;;;;;5030647;28;19921;-76
2023/05/14 04:47:14;;;;;;;;;;;10.40;68.70;;;;;;5013225;28;19963;-77
2023/05/14 04:49:39;;;;;;;;;;;10.50;68.70;;;;;;5027867;28;19928;-77
2023/05/14 04:52:05;;;;;;;;;;;10.50;68.70;;;;;;5012310;28;20395;-77
2023/05/14 04:54:30;;;;;;;;;;;10.50;68.70;;;;;;5014640;28;19928;-77
2023/05/14 04:56:56;;;;;;;;;;;10.50;68.60;;;;;;5030498;28;19925;-76
2023/05/14 04:59:21;;;;;;;;;;;10.50;68.70;;;;;;5028101;28;19944;-77
2023/05/14 05:01:47;;;;;;;;;;;10.60;68.70;;;;;;5008321;28;19963;-77
2023/05/14 05:04:12;;;;;;;;;;;10.60;68.70;;;;;;4991754;28;20564;-77
2023/05/14 05:06:38;;;;;;;;;;;10.60;68.60;;;;;;5004252;28;19957;-77
2023/05/14 05:09:03;;;;;;;;;;;10.60;68.60;;;;;;5006956;28;19932;-77
2023/05/14 05:11:28;;;;;;;;;;;10.70;68.60;;;;;;5002988;28;19928;-77
2023/05/14 05:13:54;;;;;;;;;;;10.70;68.70;;;;;;5029002;28;20427;-77
2023/05/14 05:16:19;;;;;;;;;;;10.70;68.60;;;;;;5031666;28;20011;-77
2023/05/14 05:18:45;;;;;;;;;;;10.80;68.70;;;;;;5015569;28;20473;-77
2023/05/14 05:21:10;;;;;;;;;;;10.80;68.60;;;;;;5033683;28;19956;-77
2023/05/14 05:23:36;;;;;;;;;;;10.80;68.60;;;;;;4986080;28;20403;-77
2023/05/14 05:26:01;;;;;;;;;;;10.80;68.50;;;;;;5029840;28;20004;-77
2023/05/14 05:28:27;;;;;;;;;;;10.90;68.50;;;;;;5017805;28;19998;-77
2023/05/14 05:30:52;;;;;;;;;;;10.90;68.50;;;;;;4990361;28;19921;-77
2023/05/14 05:33:18;;;;;;;;;;;10.90;68.50;;;;;;5018578;28;19929;-77
2023/05/14 05:35:44;;;;;;;;;;;11.00;68.50;;;;;;5000580;28;19921;-77
2023/05/14 05:38:09;;;;;;;;;;;11.00;68.50;;;;;;5034143;28;19921;-77
2023/05/14 05:40:34;;;;;;;;;;;11.10;68.50;;;;;;5002159;28;20287;-77
2023/05/14 05:43:00;;;;;;;;;;;11.10;68.50;;;;;;5019074;28;19921;-76
2023/05/14 05:45:25;;;;;;;;;;;11.20;68.50;;;;;;5035789;28;20005;-77
2023/05/14 05:47:51;;;;;;;;;;;11.20;68.50;;;;;;5016621;28;19928;-76
2023/05/14 05:50:16;;;;;;;;;;;11.20;68.40;;;;;;5041544;28;19928;-78
2023/05/14 05:52:42;;;;;;;;;;;11.30;68.40;;;;;;5036910;28;21536;-77
2023/05/14 05:55:08;;;;;;;;;;;11.30;68.40;;;;;;5002252;28;19943;-77
2023/05/14 05:57:33;;;;;;;;;;;11.30;68.30;;;;;;5015165;28;19924;-78
2023/05/14 05:59:59;;;;;;;;;;;11.40;68.40;;;;;;5029616;28;19974;-77
2023/05/14 06:02:24;;;;;;;;;;;11.40;68.40;;;;;;5030697;28;20543;-77
2023/05/14 06:04:50;;;;;;;;;;;11.50;68.30;;;;;;5016288;28;19925;-77
2023/05/14 06:07:15;;;;;;;;;;;11.50;68.30;;;;;;5032729;28;20282;-77
2023/05/14 06:09:41;;;;;;;;;;;11.50;68.20;;;;;;5016100;28;19920;-77
2023/05/14 06:12:06;;;;;;;;;;;11.60;68.20;;;;;;5050338;28;19929;-77
2023/05/14 06:14:32;;;;;;;;;;;11.60;68.20;;;;;;5014093;28;20446;-77
2023/05/14 06:16:57;;;;;;;;;;;11.70;68.30;;;;;;4999448;28;20299;-77
2023/05/14 06:19:23;;;;;;;;;;;11.70;68.20;;;;;;5032380;28;19928;-77
2023/05/14 06:21:48;;;;;;;;;;;11.80;68.20;;;;;;5033145;28;19927;-77
2023/05/14 06:24:15;;;;;;;;;;;11.80;68.10;;;;;;5029776;28;19931;-77
2023/05/14 06:26:40;;;;;;;;;;;11.90;68.20;;;;;;5030853;28;19921;-77
2023/05/14 06:29:06;;;;;;;;;;;11.90;68.10;;;;;;5048707;28;19926;-76
2023/05/14 06:31:31;;;;;;;;;;;12.00;68.10;;;;;;5048515;28;19921;-77
2023/05/14 06:33:57;;;;;;;;;;;12.00;68.10;;;;;;5029627;28;19956;-77
2023/05/14 06:36:22;;;;;;;;;;;12.10;68.00;;;;;;5014636;28;19920;-77
2023/05/14 06:38:47;;;;;;;;;;;12.20;68.00;;;;;;5029814;28;19953;-77
2023/05/14 06:41:13;;;;;;;;;;;12.20;68.00;;;;;;5032983;28;20619;-77
2023/05/14 06:43:38;;;;;;;;;;;12.30;68.00;;;;;;5032765;28;19944;-76
2023/05/14 06:46:04;;;;;;;;;;;12.40;68.20;;;;;;5031467;28;20616;-77
2023/05/14 06:48:29;;;;;;;;;;;12.40;67.90;;;;;;5045480;28;19979;-77
2023/05/14 06:50:55;;;;;;;;;;;12.50;67.80;;;;;;5028920;28;19961;-77
2023/05/14 06:53:20;;;;;;;;;;;12.60;67.80;;;;;;5031654;28;20651;-77
2023/05/14 06:55:46;;;;;;;;;;;12.70;67.70;;;;;;5031159;28;20024;-77
2023/05/14 06:58:12;;;;;;;;;;;12.80;67.70;;;;;;5048923;28;19975;-77
2023/05/14 07:00:37;;;;;;;;;;;12.80;67.60;;;;;;5048964;28;20434;-77
2023/05/14 07:03:03;;;;;;;;;;;12.90;67.60;;;;;;5013102;28;19931;-77
2023/05/14 07:05:28;;;;;;;;;;;13.00;67.50;;;;;;5049257;28;20020;-77
2023/05/14 07:07:54;;;;;;;;;;;13.20;67.60;;;;;;5030613;28;19925;-77
2023/05/14 07:10:19;;;;;;;;;;;13.30;67.50;;;;;;5016801;28;19921;-77
2023/05/14 07:12:45;;;;;;;;;;;13.40;67.40;;;;;;5015765;28;19936;-77
2023/05/14 07:15:11;;;;;;;;;;;13.60;67.20;;;;;;5030662;28;20012;-76
2023/05/14 07:17:36;;;;;;;;;;;13.80;67.20;;;;;;5031332;28;20686;-77
2023/05/14 07:20:02;;;;;;;;;;;13.90;67.00;;;;;;5011874;28;20295;-77
2023/05/14 07:22:27;;;;;;;;;;;14.10;66.80;;;;;;5013322;28;19924;-77
2023/05/14 07:24:53;;;;;;;;;;;14.20;66.70;;;;;;5026733;28;19928;-77
2023/05/14 07:27:18;;;;;;;;;;;14.30;66.50;;;;;;5012203;28;20628;-77
2023/05/14 07:29:44;;;;;;;;;;;14.40;66.40;;;;;;5012475;28;19967;-75
2023/05/14 07:32:09;;;;;;;;;;;14.50;66.40;;;;;;5029576;28;20828;-77
2023/05/14 07:34:35;;;;;;;;;;;14.60;66.40;;;;;;5027858;28;19921;-76
2023/05/14 07:37:00;;;;;;;;;;;14.80;66.30;;;;;;5030417;28;19920;-77
2023/05/14 07:39:26;;;;;;;;;;;14.80;66.00;;;;;;5048734;28;19924;-77
2023/05/14 07:41:53;;;;;;;;;;;14.90;66.00;;;;;;5045062;28;20566;-78
2023/05/14 07:44:19;;;;;;;;;;;15.00;66.00;;;;;;5030368;28;20014;-77
2023/05/14 07:46:44;;;;;;;;;;;15.10;65.80;;;;;;5031022;28;20383;-76
2023/05/14 07:49:10;;;;;;;;;;;15.30;65.80;;;;;;5044924;28;19980;-77
2023/05/14 07:51:35;;;;;;;;;;;15.40;65.80;;;;;;5011357;28;19951;-77
2023/05/14 07:54:01;;;;;;;;;;;15.50;65.60;;;;;;5011360;28;19967;-77
2023/05/14 07:56:26;;;;;;;;;;;15.60;65.60;;;;;;5010168;28;20050;-77
2023/05/14 07:58:52;;;;;;;;;;;15.70;66.20;;;;;;5011687;28;19975;-77
2023/05/14 08:01:17;;;;;;;;;;;15.70;65.30;;;;;;5013540;28;20004;-77
2023/05/14 08:03:42;;;;;;;;;;;15.80;65.30;;;;;;4997851;28;19975;-75
2023/05/14 08:06:08;;;;;;;;;;;15.90;65.20;;;;;;5011179;28;19926;-77
2023/05/14 08:08:33;;;;;;;;;;;16.00;65.20;;;;;;4993021;28;19944;-77
2023/05/14 08:10:59;;;;;;;;;;;16.10;65.10;;;;;;5007812;28;19939;-77
2023/05/14 08:13:24;;;;;;;;;;;16.20;65.00;;;;;;4977991;28;19933;-77
2023/05/14 08:15:50;;;;;;;;;;;16.30;64.90;;;;;;5009802;28;19921;-77
2023/05/14 08:18:15;;;;;;;;;;;16.40;64.80;;;;;;4990791;28;19948;-76
2023/05/14 08:20:41;;;;;;;;;;;16.40;64.70;;;;;;5001158;28;19921;-77
2023/05/14 08:23:08;;;;;;;;;;;16.50;64.60;;;;;;5011574;28;19921;-76
2023/05/14 08:25:33;;;;;;;;;;;16.60;64.70;;;;;;5010072;28;20277;-77
2023/05/14 08:27:59;;;;;;;;;;;16.70;64.60;;;;;;4990986;28;20497;-77
2023/05/14 08:30:24;;;;;;;;;;;16.70;64.40;;;;;;5009574;28;19967;-77
2023/05/14 08:32:50;;;;;;;;;;;16.80;64.50;;;;;;4991204;28;20406;-77
2023/05/14 08:35:16;;;;;;;;;;;16.90;64.30;;;;;;5011510;28;19921;-77
2023/05/14 08:37:41;;;;;;;;;;;17.00;64.30;;;;;;5010838;28;19931;-77
2023/05/14 08:40:07;;;;;;;;;;;17.00;64.20;;;;;;5009733;28;19921;-78
2023/05/14 08:42:33;;;;;;;;;;;17.10;64.20;;;;;;5010780;28;20714;-77
2023/05/14 08:45:01;;;;;;;;;;;17.20;64.10;;;;;;5022307;28;19944;-76
2023/05/14 08:47:27;;;;;;;;;;;17.30;64.00;;;;;;5024547;28;20750;-77
2023/05/14 08:50:06;;;;;;;;;;;17.50;64.00;;;;;;5008657;28;20362;-77
2023/05/14 08:52:32;;;;;;;;;;;17.60;63.90;;;;;;5029990;28;19925;-77
2023/05/14 08:55:01;;;;;;;;;;;17.70;63.70;;;;;;5012813;28;20032;-77
2023/05/14 08:57:27;;;;;;;;;;;17.80;63.60;;;;;;4995808;28;19931;-77
2023/05/14 08:59:52;;;;;;;;;;;17.90;63.40;;;;;;4995082;28;19921;-77
2023/05/14 09:02:26;;;;;;;;;;;17.90;63.30;;;;;;5017395;28;20004;-77
2023/05/14 09:04:55;;;;;;;;;;;18.10;63.30;;;;;;4965846;28;19956;-77
2023/05/14 09:07:21;;;;;;;;;;;18.10;63.20;;;;;;5012929;28;19929;-77
2023/05/14 09:09:47;;;;;;;;;;;18.20;63.10;;;;;;5004961;28;19922;-77
2023/05/14 09:12:12;;;;;;;;;;;18.20;63.00;;;;;;4975303;28;20044;-78
2023/05/14 09:14:38;;;;;;;;;;;18.30;62.90;;;;;;4991663;28;19961;-77
2023/05/14 09:17:03;;;;;;;;;;;18.40;62.80;;;;;;5026911;28;19967;-77
2023/05/14 09:19:29;;;;;;;;;;;18.50;62.80;;;;;;5013867;28;20008;-77
2023/05/14 09:21:55;;;;;;;;;;;18.50;62.80;;;;;;4996452;28;19932;-78
2023/05/14 09:24:22;;;;;;;;;;;18.60;62.80;;;;;;4984226;28;19932;-77
2023/05/14 09:26:51;;;;;;;;;;;18.60;62.70;;;;;;4986431;28;19922;-77
2023/05/14 09:29:17;;;;;;;;;;;18.70;62.60;;;;;;4989030;28;20744;-77
2023/05/14 09:31:42;;;;;;;;;;;18.80;62.60;;;;;;4985195;28;19930;-77
2023/05/14 09:34:07;;;;;;;;;;;18.90;62.50;;;;;;4986330;28;21536;-77
2023/05/14 09:36:33;;;;;;;;;;;18.90;62.40;;;;;;5012009;28;19921;-77
2023/05/14 09:38:59;;;;;;;;;;;19.00;62.40;;;;;;4994646;28;20012;-77
2023/05/14 09:41:24;;;;;;;;;;;19.00;62.30;;;;;;5010587;28;19936;-77
2023/05/14 09:43:50;;;;;;;;;;;19.10;62.30;;;;;;5010386;28;20446;-78
2023/05/14 09:46:15;;;;;;;;;;;19.20;62.20;;;;;;4990200;28;19948;-77
2023/05/14 09:48:41;;;;;;;;;;;19.20;62.20;;;;;;5000645;28;19933;-77
2023/05/14 09:51:08;;;;;;;;;;;19.30;62.10;;;;;;5012198;28;19921;-77
2023/05/14 09:53:34;;;;;;;;;;;19.40;62.00;;;;;;4995784;28;19944;-78
2023/05/14 09:55:59;;;;;;;;;;;19.50;61.90;;;;;;4977115;28;19932;-78
2023/05/14 09:58:25;;;;;;;;;;;19.70;61.90;;;;;;4993907;28;19929;-77
2023/05/14 10:00:51;;;;;;;;;;;19.70;61.60;;;;;;5014013;28;19918;-78
2023/05/14 10:03:16;;;;;;;;;;;19.80;61.50;;;;;;5034453;28;19921;-77
2023/05/14 10:05:41;;;;;;;;;;;19.80;61.50;;;;;;5013864;28;19921;-77
2023/05/14 10:08:13;;;;;;;;;;;19.90;61.40;;;;;;4999864;28;20046;-78
2023/05/14 10:10:39;;;;;;;;;;;19.90;61.40;;;;;;5033280;28;19924;-78
2023/05/14 10:13:12;;;;;;;;;;;20.00;61.40;;;;;;5032546;28;19929;-77
2023/05/14 10:16:04;;;;;;;;;;;20.00;62.10;;;;;;5051297;28;19947;-77
2023/05/14 10:18:29;;;;;;;;;;;20.00;61.30;;;;;;4969763;28;19927;-77
2023/05/14 10:20:56;;;;;;;;;;;20.10;61.20;;;;;;5016626;28;19924;-77
2023/05/14 10:23:21;;;;;;;;;;;20.20;61.20;;;;;;5015498;28;20390;-77
2023/05/14 10:25:47;;;;;;;;;;;20.20;61.10;;;;;;5004105;28;26140;-77
2023/05/14 10:28:12;;;;;;;;;;;20.30;61.10;;;;;;5028768;28;20010;-77
2023/05/14 10:30:42;;;;;;;;;;;20.30;61.00;;;;;;5034405;28;19971;-77
2023/05/14 10:33:08;;;;;;;;;;;20.30;61.00;;;;;;5013074;28;19971;-77
2023/05/14 10:35:50;;;;;;;;;;;20.30;60.90;;;;;;5022184;28;20821;-77
2023/05/14 10:38:15;;;;;;;;;;;20.30;61.00;;;;;;5011360;28;19924;-77
2023/05/14 10:40:41;;;;;;;;;;;20.30;60.90;;;;;;5035549;28;19955;-77
2023/05/14 10:43:07;;;;;;;;;;;20.30;60.80;;;;;;5050641;28;20003;-77
2023/05/14 10:45:33;;;;;;;;;;;20.30;60.80;;;;;;4996138;28;19927;-77
2023/05/14 10:47:58;;;;;;;;;;;20.30;60.80;;;;;;5033541;28;19921;-77
2023/05/14 10:50:24;;;;;;;;;;;20.40;60.90;;;;;;4998224;28;20335;-77
2023/05/14 10:52:49;;;;;;;;;;;20.40;60.80;;;;;;5009898;28;19932;-77
2023/05/14 10:55:15;;;;;;;;;;;20.40;60.80;;;;;;5014517;28;19964;-77
2023/05/14 10:57:41;;;;;;;;;;;20.50;60.70;;;;;;5009425;28;19927;-78
2023/05/14 11:00:07;;;;;;;;;;;20.50;60.60;;;;;;5046484;28;19927;-77
2023/05/14 11:02:36;;;;;;;;;;;20.50;60.60;;;;;;5012133;28;20502;-78
2023/05/14 11:05:02;;;;;;;;;;;20.60;60.60;;;;;;5046825;28;19920;-77
2023/05/14 11:07:29;;;;;;;;;;;20.60;60.50;;;;;;5031126;28;19928;-76
2023/05/14 11:10:01;;;;;;;;;;;20.60;60.50;;;;;;5008792;28;19933;-77
2023/05/14 11:12:27;;;;;;;;;;;20.60;60.40;;;;;;5010970;28;21749;-77
2023/05/14 11:14:53;;;;;;;;;;;20.70;60.50;;;;;;5011055;28;19987;-77
2023/05/14 11:17:18;;;;;;;;;;;20.70;60.40;;;;;;5014139;28;19923;-78
2023/05/14 11:19:44;;;;;;;;;;;20.80;61.30;;;;;;5030000;28;19921;-77
2023/05/14 11:22:12;;;;;;;;;;;20.90;60.30;;;;;;5030554;28;20338;-78
2023/05/14 11:24:38;;;;;;;;;;;21.00;60.20;;;;;;4998526;28;20578;-78
2023/05/14 11:27:03;;;;;;;;;;;21.10;60.10;;;;;;5013215;28;19925;-77
2023/05/14 11:29:29;;;;;;;;;;;21.10;60.00;;;;;;4999715;28;19920;-77
2023/05/14 11:31:54;;;;;;;;;;;21.20;60.00;;;;;;5027786;28;19929;-77
2023/05/14 11:34:20;;;;;;;;;;;21.40;59.90;;;;;;5048944;28;20406;-78
2023/05/14 11:36:46;;;;;;;;;;;21.60;59.80;;;;;;5049271;28;19928;-77
2023/05/14 11:39:16;;;;;;;;;;;21.80;59.70;;;;;;5031235;28;19920;-77
2023/05/14 11:41:45;;;;;;;;;;;21.90;59.50;;;;;;5030606;28;19917;-77
2023/05/14 11:44:10;;;;;;;;;;;22.10;59.30;;;;;;5047406;28;20765;-77
2023/05/14 11:46:36;;;;;;;;;;;22.30;59.20;;;;;;5014948;28;19917;-77
2023/05/14 11:49:04;;;;;;;;;;;22.50;59.00;;;;;;5013993;28;20615;-77
2023/05/14 11:51:30;;;;;;;;;;;22.70;58.80;;;;;;5030838;28;19920;-77
2023/05/14 11:53:57;;;;;;;;;;;22.70;58.60;;;;;;5010105;28;19925;-78
2023/05/14 11:56:23;;;;;;;;;;;22.70;58.50;;;;;;5012499;28;19921;-77
2023/05/14 11:58:48;;;;;;;;;;;22.60;58.70;;;;;;5010953;28;20501;-77
2023/05/14 12:01:14;;;;;;;;;;;22.60;58.70;;;;;;5026967;28;20361;-77
2023/05/14 12:03:39;;;;;;;;;;;22.60;58.80;;;;;;5011627;28;20334;-78
2023/05/14 12:06:05;;;;;;;;;;;22.60;58.70;;;;;;5028955;28;20008;-77
2023/05/14 12:08:31;;;;;;;;;;;22.60;58.80;;;;;;5006839;28;20337;-77
2023/05/14 12:10:57;;;;;;;;;;;22.80;58.80;;;;;;5029856;28;19921;-77
2023/05/14 12:13:25;;;;;;;;;;;22.90;58.40;;;;;;5031194;28;19928;-78
2023/05/14 12:15:55;;;;;;;;;;;23.10;58.50;;;;;;5028212;28;19921;-78
2023/05/14 12:18:20;;;;;;;;;;;23.30;58.30;;;;;;5012419;28;19921;-78
2023/05/14 12:20:46;;;;;;;;;;;23.50;58.10;;;;;;5033122;28;20705;-78
2023/05/14 12:23:12;;;;;;;;;;;23.70;57.90;;;;;;4998119;28;19927;-78
2023/05/14 12:25:38;;;;;;;;;;;23.80;57.80;;;;;;5012836;28;19921;-78
2023/05/14 12:28:12;;;;;;;;;;;23.90;57.70;;;;;;5004194;28;19982;-78
2023/05/14 12:30:38;;;;;;;;;;;24.10;57.60;;;;;;5051302;28;20028;-77
2023/05/14 12:33:03;;;;;;;;;;;24.30;57.40;;;;;;5015412;28;19925;-75
2023/05/14 12:35:29;;;;;;;;;;;24.40;57.30;;;;;;5049424;28;20612;-76
2023/05/14 12:37:54;;;;;;;;;;;24.60;57.20;;;;;;5013611;28;19931;-75
2023/05/14 12:40:20;;;;;;;;;;;24.80;57.00;;;;;;5014134;28;19921;-76
2023/05/14 12:42:45;;;;;;;;;;;24.80;56.80;;;;;;5049740;28;19921;-76
2023/05/14 12:45:11;;;;;;;;;;;24.90;56.70;;;;;;5014366;28;19979;-75
2023/05/14 12:47:36;;;;;;;;;;;24.90;56.70;;;;;;5017010;28;19920;-75
2023/05/14 12:50:02;;;;;;;;;;;24.90;56.70;;;;;;5031577;28;20328;-76
2023/05/14 12:52:28;;;;;;;;;;;25.00;56.80;;;;;;5050416;28;20901;-76
2023/05/14 12:54:53;;;;;;;;;;;25.00;56.80;;;;;;5007352;28;19920;-76
2023/05/14 12:57:19;;;;;;;;;;;25.10;56.60;;;;;;5021821;28;19921;-76
2023/05/14 12:59:44;;;;;;;;;;;25.00;56.50;;;;;;5037147;28;19940;-75
2023/05/14 13:02:10;;;;;;;;;;;25.10;56.60;;;;;;4997825;28;19921;-75
2023/05/14 13:04:36;;;;;;;;;;;25.20;56.60;;;;;;5046693;28;19924;-76
2023/05/14 13:07:01;;;;;;;;;;;25.40;56.50;;;;;;5000478;28;19921;-75
2023/05/14 13:09:27;;;;;;;;;;;25.60;56.30;;;;;;5018445;28;19931;-75
2023/05/14 13:11:52;;;;;;;;;;;25.60;56.20;;;;;;5000078;28;19982;-75
2023/05/14 13:14:18;;;;;;;;;;;25.70;56.20;;;;;;5033610;28;19959;-75
2023/05/14 13:16:43;;;;;;;;;;;25.70;56.00;;;;;;5018893;28;19940;-75
2023/05/14 13:19:09;;;;;;;;;;;25.70;56.00;;;;;;5048245;28;20489;-75
2023/05/14 13:21:34;;;;;;;;;;;25.70;56.00;;;;;;5033084;28;19920;-76
2023/05/14 13:24:00;;;;;;;;;;;25.70;56.10;;;;;;5015539;28;20112;-76
2023/05/14 13:26:27;;;;;;;;;;;25.80;56.00;;;;;;5016890;28;19925;-75
2023/05/14 13:28:52;;;;;;;;;;;25.90;56.00;;;;;;5012501;28;19921;-76
2023/05/14 13:31:18;;;;;;;;;;;26.10;56.00;;;;;;5051087;28;19920;-75
2023/05/14 13:33:43;;;;;;;;;;;26.20;55.90;;;;;;5018164;28;19925;-75
2023/05/14 13:36:10;;;;;;;;;;;26.30;55.80;;;;;;5028809;28;20395;-75
2023/05/14 13:38:36;;;;;;;;;;;26.30;55.70;;;;;;5001187;28;19967;-75
2023/05/14 13:41:01;;;;;;;;;;;26.30;55.80;;;;;;5013488;28;19956;-75
2023/05/14 13:43:29;;;;;;;;;;;26.30;55.80;;;;;;5034733;28;19931;-75
2023/05/14 13:45:55;;;;;;;;;;;26.30;55.80;;;;;;5030290;28;19957;-75
2023/05/14 13:48:20;;;;;;;;;;;26.40;55.80;;;;;;5026502;28;19968;-74
2023/05/14 13:50:46;;;;;;;;;;;26.50;55.70;;;;;;5033939;28;19923;-76
2023/05/14 13:53:11;;;;;;;;;;;26.70;55.70;;;;;;5026042;28;19929;-75
2023/05/14 13:55:37;;;;;;;;;;;26.90;55.50;;;;;;5024504;28;20586;-74
2023/05/14 13:58:02;;;;;;;;;;;27.00;55.40;;;;;;5012999;28;19964;-74
2023/05/14 14:00:28;;;;;;;;;;;26.90;55.30;;;;;;5034175;28;19931;-74
2023/05/14 14:02:53;;;;;;;;;;;27.00;55.30;;;;;;4991891;28;22320;-74
2023/05/14 14:05:19;;;;;;;;;;;27.10;55.20;;;;;;4996454;28;19921;-74
2023/05/14 14:07:44;;;;;;;;;;;27.20;55.10;;;;;;4994657;28;19971;-74
2023/05/14 14:10:10;;;;;;;;;;;27.30;55.10;;;;;;5013082;28;19928;-75